Time;durP1;ratioP1;P1;durP2;ratioP2;P2;SDS_P1;SDS_P2;PMS_P1;PMS_P2;Temp;Humidity;BMP_temperature;BMP_pressure;BME280_temperature;BME280_humidity;BME280_pressure;Samples;Min_cycle;Max_cycle;Signal;HPM_P1;HPM_P2
2023/04/08 00:00:14;;;;;;;9.60;6.37;;;;;7.90;96328.00;;;;8401992;28;20252;-73
2023/04/08 00:04:20;;;;;;;12.10;7.33;;;;;7.90;96332.00;;;;8391095;28;20235;-73
2023/04/08 00:08:23;;;;;;;12.17;7.00;;;;;8.00;96330.00;;;;8398316;28;20265;-73
2023/04/08 00:16:52;;;;;;;12.33;7.30;;;;;7.90;96332.00;;;;8396786;28;20259;-73
2023/04/08 00:21:00;;;;;;;15.10;8.13;;;;;7.90;96338.00;;;;8393500;28;20371;-73
2023/04/08 00:25:08;;;;;;;15.70;8.32;;;;;7.90;96339.00;;;;8403012;28;20821;-73
2023/04/08 00:29:13;;;;;;;10.97;7.23;;;;;7.90;96343.00;;;;8395297;28;20192;-73
2023/04/08 00:33:19;;;;;;;11.97;6.90;;;;;7.90;96345.00;;;;8398307;28;20254;-73
2023/04/08 00:37:23;;;;;;;11.67;6.87;;;;;7.90;96336.00;;;;8395407;28;20808;-73
2023/04/08 00:41:28;;;;;;;13.40;6.90;;;;;7.80;96343.00;;;;8397565;28;20192;-73
2023/04/08 00:45:34;;;;;;;12.83;6.63;;;;;7.80;96353.00;;;;8396984;28;20203;-73
2023/04/08 00:49:39;;;;;;;13.00;7.40;;;;;7.70;96353.00;;;;8400558;28;20216;-73
2023/04/08 00:53:49;;;;;;;11.90;7.35;;;;;7.70;96348.00;;;;8401855;28;20200;-73
2023/04/08 00:57:58;;;;;;;12.43;6.97;;;;;7.60;96346.00;;;;8394278;28;20231;-73
2023/04/08 01:02:12;;;;;;;13.37;7.10;;;;;7.60;96350.00;;;;8398405;28;20593;-73
2023/04/08 01:06:23;;;;;;;14.40;7.83;;;;;7.50;96350.00;;;;8397318;28;20290;-72
2023/04/08 01:10:31;;;;;;;12.77;7.03;;;;;7.50;96350.00;;;;8401471;28;20196;-72
2023/04/08 01:14:40;;;;;;;10.80;6.67;;;;;7.40;96352.00;;;;8400469;28;20207;-72
2023/04/08 01:18:51;;;;;;;11.80;6.60;;;;;7.40;96353.00;;;;8407096;28;20625;-73
2023/04/08 01:23:12;;;;;;;10.97;7.20;;;;;7.40;96346.00;;;;8402839;28;20219;-73
2023/04/08 01:27:18;;;;;;;10.93;7.27;;;;;7.50;96350.00;;;;8410644;28;20204;-73
2023/04/08 01:31:24;;;;;;;14.03;7.70;;;;;7.50;96342.00;;;;8403121;28;20568;-72
2023/04/08 01:35:28;;;;;;;13.17;7.50;;;;;7.50;96340.00;;;;8403218;28;20224;-73
2023/04/08 01:39:33;;;;;;;11.83;7.40;;;;;7.40;96344.00;;;;8396258;28;20629;-72
2023/04/08 01:43:45;;;;;;;14.20;7.00;;;;;7.40;96345.00;;;;8392721;28;20242;-73
2023/04/08 01:47:51;;;;;;;11.97;7.67;;;;;7.30;96341.00;;;;8399936;28;20681;-73
2023/04/08 01:51:58;;;;;;;14.70;7.90;;;;;7.20;96346.00;;;;8391386;28;20298;-73
2023/04/08 01:56:06;;;;;;;11.97;6.73;;;;;7.20;96342.00;;;;8387911;28;20262;-72
2023/04/08 02:00:14;;;;;;;13.30;7.10;;;;;7.10;96342.00;;;;8388119;28;20669;-72
2023/04/08 02:04:17;;;;;;;14.10;7.63;;;;;7.00;96346.00;;;;8397833;28;20248;-73
2023/04/08 02:08:20;;;;;;;12.43;7.03;;;;;6.90;96351.00;;;;8388836;28;20234;-73
2023/04/08 02:12:23;;;;;;;12.47;7.30;;;;;6.80;96348.00;;;;8399373;28;20200;-73
2023/04/08 02:16:34;;;;;;;14.37;7.77;;;;;6.80;96344.00;;;;8395088;28;20232;-73
2023/04/08 02:20:44;;;;;;;13.00;7.53;;;;;6.70;96343.00;;;;8391627;28;20788;-72
2023/04/08 02:24:48;;;;;;;15.30;7.50;;;;;6.70;96345.00;;;;8394566;28;20613;-73
2023/04/08 02:28:53;;;;;;;13.70;7.53;;;;;6.70;96347.00;;;;8396109;28;20576;-73
2023/04/08 02:32:58;;;;;;;15.37;8.03;;;;;6.80;96356.00;;;;8394784;28;20219;-72
2023/04/08 02:37:04;;;;;;;14.03;7.80;;;;;6.90;96352.00;;;;8395441;28;20273;-72
2023/04/08 02:41:09;;;;;;;14.67;7.63;;;;;7.10;96348.00;;;;8391497;28;20872;-72
2023/04/08 02:45:21;;;;;;;13.10;7.77;;;;;7.10;96352.00;;;;8394459;28;20287;-73
2023/04/08 02:49:25;;;;;;;13.03;7.20;;;;;7.20;96351.00;;;;8392072;28;20200;-72
2023/04/08 02:53:33;;;;;;;15.03;7.93;;;;;7.30;96354.00;;;;8401450;28;20203;-73
2023/04/08 02:57:37;;;;;;;13.47;7.33;;;;;7.30;96350.00;;;;8393246;28;20227;-72
2023/04/08 03:01:40;;;;;;;16.53;7.80;;;;;7.40;96349.00;;;;8416634;23;20259;-71
2023/04/08 03:05:45;;;;;;;14.13;8.20;;;;;7.40;96346.00;;;;8299758;28;20205;-72
2023/04/08 03:09:48;;;;;;;17.03;9.10;;;;;7.40;96357.00;;;;8308580;28;20716;-72
2023/04/08 03:13:51;;;;;;;14.70;8.07;;;;;7.40;96353.00;;;;8310337;28;20202;-72
2023/04/08 03:17:55;;;;;;;14.10;7.97;;;;;7.40;96351.00;;;;8309766;28;20265;-72
2023/04/08 03:22:00;;;;;;;13.93;7.53;;;;;7.40;96349.00;;;;8310978;28;20214;-72
2023/04/08 03:26:03;;;;;;;13.20;7.57;;;;;7.40;96352.00;;;;8307639;28;20224;-73
2023/04/08 03:30:07;;;;;;;12.23;7.33;;;;;7.30;96352.00;;;;8304286;28;20759;-72
2023/04/08 03:34:10;;;;;;;15.13;7.93;;;;;7.30;96355.00;;;;8317735;28;20193;-73
2023/04/08 03:38:15;;;;;;;13.57;8.30;;;;;7.30;96360.00;;;;8312974;28;20319;-73
2023/04/08 03:42:18;;;;;;;16.33;8.20;;;;;7.20;96360.00;;;;8311839;28;20209;-73
2023/04/08 03:46:21;;;;;;;14.87;8.37;;;;;7.20;96361.00;;;;8315639;28;20335;-73
2023/04/08 03:50:28;;;;;;;13.00;7.77;;;;;7.10;96367.00;;;;8316569;28;20202;-73
2023/04/08 03:54:35;;;;;;;11.90;8.03;;;;;7.10;96368.00;;;;8313232;28;20206;-73
2023/04/08 03:58:38;;;;;;;14.93;8.10;;;;;7.10;96363.00;;;;8314766;28;20230;-73
2023/04/08 04:02:47;;;;;;;15.27;8.47;;;;;7.10;96359.00;;;;8301651;28;20257;-72
2023/04/08 04:06:52;;;;;;;12.63;7.90;;;;;7.10;96366.00;;;;8276277;28;20207;-72
2023/04/08 04:10:58;;;;;;;14.40;9.17;;;;;7.10;96372.00;;;;8278160;28;20232;-71
2023/04/08 04:15:03;;;;;;;12.00;8.17;;;;;7.10;96368.00;;;;8285740;28;20699;-71
2023/04/08 04:19:06;;;;;;;16.47;8.33;;;;;7.10;96374.00;;;;8266717;28;20329;-71
2023/04/08 04:23:09;;;;;;;15.47;8.70;;;;;7.10;96371.00;;;;8276423;28;20214;-72
2023/04/08 04:27:13;;;;;;;15.13;8.30;;;;;7.10;96381.00;;;;8286438;28;20229;-72
2023/04/08 04:31:20;;;;;;;15.07;8.27;;;;;7.00;96379.00;;;;8284050;28;20206;-71
2023/04/08 04:35:23;;;;;;;14.00;8.00;;;;;7.10;96377.00;;;;8281853;28;20739;-72
2023/04/08 04:39:27;;;;;;;12.37;7.93;;;;;7.00;96382.00;;;;8285517;28;20313;-71
2023/04/08 04:43:34;;;;;;;12.63;8.00;;;;;7.00;96383.00;;;;8282770;28;20202;-71
2023/04/08 04:47:40;;;;;;;15.03;8.00;;;;;7.00;96380.00;;;;8277956;28;20196;-71
2023/04/08 04:51:43;;;;;;;13.80;8.70;;;;;7.00;96388.00;;;;8277427;28;20248;-73
2023/04/08 04:55:48;;;;;;;19.73;8.13;;;;;7.00;96385.00;;;;8274811;28;20205;-73
2023/04/08 04:59:53;;;;;;;17.30;8.27;;;;;7.10;96393.00;;;;8274721;28;20248;-73
2023/04/08 05:03:56;;;;;;;13.97;8.03;;;;;7.10;96403.00;;;;8270747;28;20788;-72
2023/04/08 05:08:02;;;;;;;13.90;8.77;;;;;7.10;96402.00;;;;8273884;28;20205;-73
2023/04/08 05:12:08;;;;;;;16.70;8.70;;;;;7.10;96411.00;;;;8275438;28;20288;-72
2023/04/08 05:16:12;;;;;;;13.43;8.97;;;;;7.10;96411.00;;;;8281203;28;20304;-72
2023/04/08 05:20:22;;;;;;;14.77;8.83;;;;;7.10;96414.00;;;;8281513;28;20392;-72
2023/04/08 05:24:25;;;;;;;13.70;8.43;;;;;7.10;96414.00;;;;8276230;28;20203;-72
2023/04/08 05:28:30;;;;;;;13.73;8.70;;;;;7.00;96416.00;;;;8276975;28;20237;-72
2023/04/08 05:32:35;;;;;;;16.33;9.37;;;;;7.00;96431.00;;;;8278586;28;20206;-72
2023/04/08 05:36:37;;;;;;;18.40;9.87;;;;;7.00;96431.00;;;;8278231;28;20234;-73
2023/04/08 05:40:40;;;;;;;16.50;9.77;;;;;6.90;96431.00;;;;8281357;28;20198;-71
2023/04/08 05:44:46;;;;;;;14.60;8.80;;;;;6.90;96434.00;;;;8278173;28;20202;-71
2023/04/08 05:48:54;;;;;;;17.97;9.90;;;;;6.80;96440.00;;;;8276776;28;20222;-71
2023/04/08 05:53:00;;;;;;;16.70;10.40;;;;;6.60;96454.00;;;;8277203;28;20203;-72
2023/04/08 05:57:07;;;;;;;20.20;10.73;;;;;6.10;96448.00;;;;8276830;28;20809;-70
2023/04/08 06:01:14;;;;;;;19.83;10.50;;;;;5.70;96452.00;;;;8278615;28;20654;-71
2023/04/08 06:05:19;;;;;;;21.67;11.73;;;;;5.50;96460.00;;;;8279477;28;20244;-70
2023/04/08 06:09:23;;;;;;;26.63;12.23;;;;;5.30;96474.00;;;;8277066;28;20312;-73
2023/04/08 06:13:32;;;;;;;19.30;11.03;;;;;5.10;96469.00;;;;8277949;28;20206;-75
2023/04/08 06:17:36;;;;;;;23.07;13.30;;;;;5.00;96479.00;;;;8275723;28;20729;-80
2023/04/08 06:21:44;;;;;;;23.60;12.43;;;;;4.80;96474.00;;;;8280670;28;20206;-76
2023/04/08 06:25:47;;;;;;;26.87;12.27;;;;;4.80;96488.00;;;;8271278;28;20703;-77
2023/04/08 06:29:50;;;;;;;23.97;12.33;;;;;4.80;96478.00;;;;8276981;28;20961;-78
2023/04/08 06:33:55;;;;;;;22.93;12.73;;;;;4.80;96491.00;;;;8279010;28;20205;-78
2023/04/08 06:38:03;;;;;;;23.63;13.10;;;;;4.80;96496.00;;;;8274804;28;20922;-78
2023/04/08 06:42:06;;;;;;;23.97;12.23;;;;;4.80;96488.00;;;;8270019;28;20198;-83
2023/04/08 06:46:11;;;;;;;19.93;11.60;;;;;4.80;96494.00;;;;8277734;28;20714;-82
2023/04/08 06:50:14;;;;;;;21.80;11.30;;;;;4.80;96495.00;;;;8276399;28;20207;-82
2023/04/08 06:54:19;;;;;;;24.57;11.57;;;;;4.80;96494.00;;;;8275208;28;20233;-82
2023/04/08 06:58:22;;;;;;;24.20;12.43;;;;;4.80;96506.00;;;;8273554;28;20236;-81
2023/04/08 07:02:27;;;;;;;19.77;11.17;;;;;4.90;96509.00;;;;8273381;28;20237;-81
2023/04/08 07:06:33;;;;;;;22.23;11.63;;;;;4.90;96517.00;;;;8276105;28;20201;-83
2023/04/08 07:10:37;;;;;;;21.80;11.97;;;;;5.00;96522.00;;;;8283365;28;20208;-79
2023/04/08 07:14:43;;;;;;;19.67;10.37;;;;;4.90;96523.00;;;;8282033;28;20198;-80
2023/04/08 07:18:46;;;;;;;20.67;11.27;;;;;4.90;96525.00;;;;8279584;28;20699;-78
2023/04/08 07:22:49;;;;;;;18.37;10.30;;;;;4.90;96527.00;;;;8280551;28;20209;-79
2023/04/08 07:26:55;;;;;;;18.37;10.10;;;;;4.80;96529.00;;;;8281388;28;20208;-77
2023/04/08 07:31:12;;;;;;;20.50;9.70;;;;;4.90;96527.00;;;;8280675;28;20266;-77
2023/04/08 07:35:22;;;;;;;19.47;9.70;;;;;5.00;96530.00;;;;8273953;28;20765;-77
2023/04/08 07:39:25;;;;;;;16.83;9.63;;;;;5.00;96537.00;;;;8277443;28;20230;-77
2023/04/08 07:43:33;;;;;;;19.50;9.67;;;;;5.10;96536.00;;;;8281248;28;20713;-77
2023/04/08 07:47:39;;;;;;;20.40;9.80;;;;;5.20;96535.00;;;;8282056;28;20209;-77
2023/04/08 07:51:42;;;;;;;23.43;11.60;;;;;5.30;96541.00;;;;8284291;28;20258;-78
2023/04/08 07:55:45;;;;;;;17.30;10.23;;;;;5.40;96544.00;;;;8282442;28;20639;-77
2023/04/08 07:59:49;;;;;;;18.73;10.10;;;;;5.40;96546.00;;;;8283923;28;20243;-78
2023/04/08 08:03:55;;;;;;;17.70;10.37;;;;;5.40;96546.00;;;;8281442;28;20232;-80
2023/04/08 08:07:59;;;;;;;20.50;10.80;;;;;5.40;96546.00;;;;8280587;28;20641;-79
2023/04/08 08:12:05;;;;;;;19.50;10.00;;;;;5.40;96557.00;;;;8283440;28;20994;-77
2023/04/08 08:16:10;;;;;;;21.63;10.57;;;;;5.40;96565.00;;;;8282024;28;20229;-77
2023/04/08 08:20:17;;;;;;;18.87;10.10;;;;;5.50;96563.00;;;;8282047;28;20295;-77
2023/04/08 08:24:20;;;;;;;17.57;9.97;;;;;5.50;96569.00;;;;8278764;28;20198;-78
2023/04/08 08:28:23;;;;;;;16.33;9.50;;;;;5.50;96573.00;;;;8275693;28;20244;-78
2023/04/08 08:32:36;;;;;;;17.33;9.67;;;;;5.60;96562.00;;;;8277770;28;20206;-73
2023/04/08 08:36:40;;;;;;;22.80;10.77;;;;;5.70;96565.00;;;;8276013;28;20220;-79
2023/04/08 08:40:43;;;;;;;18.53;10.10;;;;;5.80;96570.00;;;;8273560;28;20717;-79
2023/04/08 08:44:49;;;;;;;19.43;10.17;;;;;6.00;96569.00;;;;8274572;28;20247;-77
2023/04/08 08:48:54;;;;;;;13.73;8.00;;;;;6.20;96567.00;;;;8279551;28;20233;-77
2023/04/08 08:53:00;;;;;;;14.33;9.20;;;;;6.50;96563.00;;;;8276643;28;20338;-77
2023/04/08 08:57:02;;;;;;;11.47;7.77;;;;;6.60;96572.00;;;;8279922;28;20248;-78
2023/04/08 09:01:33;;;;;;;13.03;8.80;;;;;6.80;96581.00;;;;8275904;28;20322;-78
2023/04/08 09:05:50;;;;;;;13.50;8.53;;;;;6.80;96582.00;;;;8274179;28;20205;-76
2023/04/08 09:09:56;;;;;;;15.67;8.77;;;;;6.80;96586.00;;;;8279973;28;20203;-77
2023/04/08 09:14:00;;;;;;;11.53;7.73;;;;;6.70;96596.00;;;;8275378;28;20214;-78
2023/04/08 09:18:10;;;;;;;15.77;9.03;;;;;6.80;96596.00;;;;8278540;28;20818;-77
2023/04/08 09:22:15;;;;;;;15.10;8.67;;;;;6.80;96603.00;;;;8281835;28;20754;-77
2023/04/08 09:26:21;;;;;;;12.33;7.50;;;;;6.80;96593.00;;;;8280555;28;20750;-78
2023/04/08 09:30:26;;;;;;;14.73;8.27;;;;;6.70;96603.00;;;;8281984;28;20202;-77
2023/04/08 09:34:32;;;;;;;14.23;8.20;;;;;6.80;96603.00;;;;8275801;28;20448;-77
2023/04/08 09:38:37;;;;;;;17.03;8.93;;;;;6.90;96595.00;;;;8278016;28;20226;-76
2023/04/08 09:42:43;;;;;;;15.80;9.43;;;;;6.80;96603.00;;;;8274438;28;20324;-76
2023/04/08 09:46:56;;;;;;;14.60;9.03;;;;;6.90;96603.00;;;;8275514;28;20234;-76
2023/04/08 09:51:03;;;;;;;13.90;8.30;;;;;6.90;96607.00;;;;8274746;28;20233;-76
2023/04/08 09:55:11;;;;;;;14.13;8.27;;;;;6.90;96601.00;;;;8275338;28;20608;-77
2023/04/08 09:59:20;;;;;;;13.83;9.10;;;;;6.90;96611.00;;;;8281803;28;20226;-76
2023/04/08 10:03:29;;;;;;;12.13;7.90;;;;;7.30;96611.00;;;;8274864;28;20233;-76
2023/04/08 10:07:42;;;;;;;13.13;8.40;;;;;7.60;96608.00;;;;8267340;28;20208;-75
2023/04/08 10:11:47;;;;;;;12.63;8.47;;;;;7.70;96617.00;;;;8276197;28;20239;-74
2023/04/08 10:15:51;;;;;;;8.67;6.57;;;;;7.70;96615.00;;;;8283301;28;20268;-75
2023/04/08 10:20:01;;;;;;;8.07;5.93;;;;;7.70;96621.00;;;;8283574;28;20245;-76
2023/04/08 10:24:09;;;;;;;9.67;6.90;;;;;7.80;96611.00;;;;8276681;28;20938;-75
2023/04/08 10:28:35;;;;;;;8.73;6.37;;;;;8.00;96613.00;;;;8268979;28;20233;-75
2023/04/08 10:32:43;;;;;;;8.83;6.50;;;;;8.30;96617.00;;;;8268677;28;20284;-75
2023/04/08 10:36:47;;;;;;;8.63;6.33;;;;;8.50;96624.00;;;;8276748;28;20293;-75
2023/04/08 10:40:51;;;;;;;9.20;6.10;;;;;8.50;96622.00;;;;8279532;28;20230;-75
2023/04/08 10:45:02;;;;;;;10.97;6.23;;;;;8.40;96622.00;;;;8274152;28;20736;-75
2023/04/08 10:49:11;;;;;;;11.60;6.00;;;;;8.30;96629.00;;;;8277914;28;20667;-75
2023/04/08 10:53:16;;;;;;;10.03;6.37;;;;;8.20;96627.00;;;;8272625;28;20200;-75
2023/04/08 10:57:24;;;;;;;11.83;6.80;;;;;8.20;96633.00;;;;8268595;28;20251;-75
2023/04/08 11:01:40;;;;;;;9.40;6.57;;;;;8.20;96634.00;;;;8268170;28;20908;-76
2023/04/08 11:05:44;;;;;;;10.77;6.50;;;;;8.10;96637.00;;;;8273280;28;20202;-75
2023/04/08 11:09:49;;;;;;;11.30;6.70;;;;;8.00;96631.00;;;;8272090;28;20186;-76
2023/04/08 11:13:52;;;;;;;9.87;6.83;;;;;8.10;96632.00;;;;8274454;28;20198;-77
2023/04/08 11:18:01;;;;;;;12.17;6.57;;;;;8.10;96638.00;;;;8273870;28;20206;-76
2023/04/08 11:22:14;;;;;;;9.60;6.53;;;;;8.10;96633.00;;;;8268710;28;20227;-77
2023/04/08 11:26:18;;;;;;;8.13;5.43;;;;;8.10;96635.00;;;;8277626;28;20209;-77
2023/04/08 11:30:22;;;;;;;9.50;6.57;;;;;8.20;96634.00;;;;8272269;28;20202;-76
2023/04/08 11:34:29;;;;;;;8.30;6.23;;;;;8.20;96631.00;;;;8273410;28;20272;-77
2023/04/08 11:38:38;;;;;;;10.03;7.07;;;;;8.20;96633.00;;;;8281156;28;20316;-69
2023/04/08 11:42:41;;;;;;;9.40;6.10;;;;;8.30;96621.00;;;;8275475;28;20581;-70
2023/04/08 11:46:57;;;;;;;6.77;5.43;;;;;8.30;96626.00;;;;8279006;28;20228;-71
2023/04/08 11:51:07;;;;;;;6.73;5.23;;;;;8.40;96623.00;;;;8269809;28;20206;-72
2023/04/08 11:55:26;;;;;;;6.40;5.50;;;;;8.40;96628.00;;;;8277434;28;20259;-70
2023/04/08 11:59:29;;;;;;;6.70;5.77;;;;;8.60;96626.00;;;;8273067;28;20321;-72
2023/04/08 12:03:35;;;;;;;7.53;5.43;;;;;8.70;96631.00;;;;8281037;28;20264;-71
2023/04/08 12:07:39;;;;;;;9.80;5.67;;;;;8.80;96625.00;;;;8281133;28;20256;-71
2023/04/08 12:11:43;;;;;;;7.80;5.30;;;;;8.80;96630.00;;;;8283037;28;20603;-73
2023/04/08 12:15:46;;;;;;;6.03;4.73;;;;;8.80;96628.00;;;;8282833;28;20384;-73
2023/04/08 12:19:50;;;;;;;8.73;6.03;;;;;8.90;96635.00;;;;8279956;28;20226;-72
2023/04/08 12:23:54;;;;;;;5.37;4.83;;;;;8.90;96635.00;;;;8275035;28;20630;-72
2023/04/08 12:27:57;;;;;;;9.83;6.37;;;;;9.00;96640.00;;;;8274243;28;20208;-72
2023/04/08 12:32:01;;;;;;;11.33;5.70;;;;;9.00;96641.00;;;;8267943;28;20563;-72
2023/04/08 12:36:04;;;;;;;8.13;6.17;;;;;9.00;96645.00;;;;8271929;28;20194;-72
2023/04/08 12:40:09;;;;;;;7.33;5.23;;;;;9.00;96650.00;;;;8274853;28;20226;-71
2023/04/08 12:44:14;;;;;;;6.87;5.10;;;;;8.90;96644.00;;;;8272923;28;20232;-70
2023/04/08 12:48:17;;;;;;;7.43;5.60;;;;;8.80;96654.00;;;;8274431;28;20265;-71
2023/04/08 12:52:21;;;;;;;6.27;4.73;;;;;8.80;96649.00;;;;8276125;28;20198;-71
2023/04/08 12:56:26;;;;;;;9.10;6.27;;;;;8.70;96647.00;;;;8273502;28;20202;-70
2023/04/08 13:00:29;;;;;;;7.37;5.53;;;;;8.70;96646.00;;;;8275924;28;21039;-70
2023/04/08 13:04:31;;;;;;;9.13;5.90;;;;;8.50;96650.00;;;;8279177;28;20729;-74
2023/04/08 13:08:41;;;;;;;11.80;7.13;;;;;8.40;96647.00;;;;8276127;28;20206;-75
2023/04/08 13:12:47;;;;;;;11.90;6.77;;;;;8.10;96648.00;;;;8275787;28;20191;-77
2023/04/08 13:16:52;;;;;;;10.90;7.37;;;;;7.90;96650.00;;;;8274152;28;20206;-76
2023/04/08 13:20:56;;;;;;;12.83;7.97;;;;;7.90;96650.00;;;;8280719;28;20291;-74
2023/04/08 13:25:01;;;;;;;11.63;7.03;;;;;7.90;96650.00;;;;8267188;28;20651;-75
2023/04/08 13:29:06;;;;;;;10.87;7.43;;;;;8.10;96658.00;;;;8281535;28;20240;-74
2023/04/08 13:33:12;;;;;;;11.90;7.30;;;;;8.40;96658.00;;;;8278364;28;20206;-75
2023/04/08 13:37:15;;;;;;;13.47;7.40;;;;;8.80;96664.00;;;;8281967;28;20611;-74
2023/04/08 13:41:22;;;;;;;14.43;8.47;;;;;8.90;96655.00;;;;8275564;28;20543;-74
2023/04/08 13:45:26;;;;;;;12.35;7.75;;;;;9.00;96655.00;;;;8274570;28;20225;-73
2023/04/08 13:49:32;;;;;;;9.90;7.03;;;;;9.10;96655.00;;;;8280264;28;20712;-73
2023/04/08 13:53:37;;;;;;;17.63;8.20;;;;;9.10;96653.00;;;;8274870;28;20221;-73
2023/04/08 13:57:42;;;;;;;14.98;9.27;;;;;9.00;96654.00;;;;8280486;28;20205;-73
2023/04/08 14:01:52;;;;;;;13.77;8.90;;;;;9.10;96650.00;;;;8281511;28;20261;-73
2023/04/08 14:05:56;;;;;;;12.52;8.60;;;;;9.30;96653.00;;;;8279020;28;20764;-72
2023/04/08 14:10:00;;;;;;;13.47;9.10;;;;;10.30;96656.00;;;;8274476;28;20206;-72
2023/04/08 14:14:04;;;;;;;10.20;7.10;;;;;10.60;96664.00;;;;8274434;28;20202;-72
2023/04/08 14:18:09;;;;;;;9.57;6.07;;;;;10.10;96663.00;;;;8279935;28;20190;-74
2023/04/08 14:22:13;;;;;;;9.73;6.27;;;;;8.70;96675.00;;;;8274925;28;20230;-73
2023/04/08 14:26:16;;;;;;;6.50;4.80;;;;;8.00;96674.00;;;;8277456;28;20210;-72
2023/04/08 14:30:22;;;;;;;9.20;6.40;;;;;7.70;96668.00;;;;8282041;28;20285;-73
2023/04/08 14:34:27;;;;;;;9.90;6.63;;;;;7.70;96667.00;;;;8277685;28;20202;-74
2023/04/08 14:38:51;;;;;;;10.63;6.80;;;;;7.70;96673.00;;;;8278936;28;20190;-73
2023/04/08 14:42:55;;;;;;;10.70;6.73;;;;;7.70;96670.00;;;;8269048;28;20754;-76
2023/04/08 14:46:58;;;;;;;15.50;7.57;;;;;7.70;96676.00;;;;8269917;28;20198;-76
2023/04/08 14:51:02;;;;;;;14.60;9.17;;;;;7.70;96681.00;;;;8277333;28;20201;-75
2023/04/08 14:55:07;;;;;;;16.80;9.57;;;;;7.80;96670.00;;;;8268211;28;20202;-75
2023/04/08 14:59:13;;;;;;;14.07;9.63;;;;;8.00;96668.00;;;;8271593;28;20230;-77
2023/04/08 15:03:16;;;;;;;14.73;9.97;;;;;8.10;96676.00;;;;8270541;28;20226;-77
2023/04/08 15:07:21;;;;;;;10.00;7.43;;;;;8.10;96683.00;;;;8268588;28;20201;-76
2023/04/08 15:11:24;;;;;;;16.53;7.70;;;;;8.20;96682.00;;;;8261305;28;20916;-78
2023/04/08 15:15:33;;;;;;;14.67;8.87;;;;;8.40;96683.00;;;;8277544;28;20222;-75
2023/04/08 15:19:36;;;;;;;12.00;8.03;;;;;8.50;96693.00;;;;8271857;28;20741;-74
2023/04/08 15:23:42;;;;;;;15.10;8.60;;;;;8.60;96687.00;;;;8273737;28;20579;-72
2023/04/08 15:27:47;;;;;;;13.27;8.63;;;;;8.60;96697.00;;;;8281937;28;20210;-77
2023/04/08 15:31:51;;;;;;;11.47;7.17;;;;;8.70;96698.00;;;;8285767;28;20584;-73
2023/04/08 15:35:58;;;;;;;10.88;7.60;;;;;8.70;96704.00;;;;8289217;28;20198;-72
2023/04/08 15:40:02;;;;;;;12.13;7.70;;;;;8.70;96709.00;;;;8282522;28;20197;-74
2023/04/08 15:44:07;;;;;;;10.40;7.40;;;;;8.80;96702.00;;;;8286077;28;21020;-73
2023/04/08 15:48:12;;;;;;;8.80;6.93;;;;;8.80;96700.00;;;;8280286;28;20285;-71
2023/04/08 15:52:15;;;;;;;9.83;6.20;;;;;8.80;96707.00;;;;8279255;28;20206;-73
2023/04/08 15:56:20;;;;;;;9.00;6.87;;;;;8.80;96705.00;;;;8276067;28;20256;-72
2023/04/08 16:00:23;;;;;;;9.17;6.80;;;;;8.80;96706.00;;;;8278471;28;20222;-71
2023/04/08 16:04:26;;;;;;;9.87;6.17;;;;;8.80;96708.00;;;;8281530;28;20257;-71
2023/04/08 16:08:31;;;;;;;11.17;7.20;;;;;8.90;96703.00;;;;8277340;28;20248;-71
2023/04/08 16:12:35;;;;;;;8.83;6.37;;;;;8.90;96721.00;;;;8271533;28;20213;-71
2023/04/08 16:16:41;;;;;;;9.40;6.50;;;;;8.90;96716.00;;;;8277466;28;20207;-69
2023/04/08 16:20:48;;;;;;;12.63;8.07;;;;;8.80;96724.00;;;;8276024;28;20242;-71
2023/04/08 16:24:52;;;;;;;9.35;7.25;;;;;8.90;96728.00;;;;8271092;28;20221;-72
2023/04/08 16:29:04;;;;;;;8.33;6.90;;;;;8.90;96727.00;;;;8275361;28;20206;-70
2023/04/08 16:33:07;;;;;;;11.73;6.80;;;;;8.90;96725.00;;;;8271995;28;20812;-73
2023/04/08 16:37:10;;;;;;;10.77;7.33;;;;;8.80;96735.00;;;;8275393;28;20198;-72
2023/04/08 16:41:18;;;;;;;12.27;8.03;;;;;8.70;96742.00;;;;8283032;28;20620;-73
2023/04/08 16:45:23;;;;;;;12.73;7.87;;;;;8.60;96739.00;;;;8271980;28;20209;-73
2023/04/08 16:49:26;;;;;;;10.13;7.03;;;;;8.60;96757.00;;;;8278342;28;20297;-72
2023/04/08 16:53:31;;;;;;;11.03;8.53;;;;;8.50;96761.00;;;;8272997;28;20202;-72
2023/04/08 16:57:35;;;;;;;11.37;7.13;;;;;8.50;96753.00;;;;8285514;28;20206;-72
2023/04/08 17:01:42;;;;;;;10.63;7.03;;;;;8.40;96766.00;;;;8272949;28;20233;-72
2023/04/08 17:05:48;;;;;;;8.33;5.97;;;;;8.40;96760.00;;;;8274832;28;20206;-73
2023/04/08 17:09:51;;;;;;;9.07;7.03;;;;;8.30;96768.00;;;;8276785;28;20268;-72
2023/04/08 17:13:56;;;;;;;7.63;6.37;;;;;8.20;96764.00;;;;8270388;28;20248;-69
2023/04/08 17:18:00;;;;;;;8.80;7.07;;;;;8.20;96774.00;;;;8270115;28;20214;-72
2023/04/08 17:22:10;;;;;;;10.33;7.10;;;;;8.10;96769.00;;;;8275214;28;20237;-71
2023/04/08 17:26:12;;;;;;;9.70;7.07;;;;;8.10;96787.00;;;;8274746;28;20208;-73
2023/04/08 17:30:19;;;;;;;9.53;7.00;;;;;8.00;96784.00;;;;8273254;28;20236;-72
2023/04/08 17:34:25;;;;;;;10.43;7.77;;;;;8.00;96795.00;;;;8269768;28;20234;-72
2023/04/08 17:38:31;;;;;;;11.03;7.43;;;;;7.90;96799.00;;;;8276214;28;20206;-73
2023/04/08 17:42:34;;;;;;;10.33;7.30;;;;;7.90;96801.00;;;;8266965;28;20336;-75
2023/04/08 17:46:37;;;;;;;11.40;7.20;;;;;7.80;96806.00;;;;8275154;28;20252;-73
2023/04/08 17:50:45;;;;;;;11.40;7.40;;;;;7.80;96804.00;;;;8264502;28;20222;-75
2023/04/08 17:54:48;;;;;;;9.93;6.87;;;;;7.80;96810.00;;;;8277042;28;20731;-72
2023/04/08 17:58:54;;;;;;;8.87;6.37;;;;;7.80;96821.00;;;;8273399;28;20694;-74
2023/04/08 18:03:00;;;;;;;8.43;6.03;;;;;7.70;96820.00;;;;8273852;28;20945;-73
2023/04/08 18:07:04;;;;;;;9.03;6.40;;;;;7.70;96827.00;;;;8280856;28;20198;-72
2023/04/08 18:11:07;;;;;;;10.30;6.80;;;;;7.70;96824.00;;;;8268110;28;20832;-74
2023/04/08 18:15:11;;;;;;;9.90;6.77;;;;;7.80;96831.00;;;;8270624;28;20202;-72
2023/04/08 18:19:15;;;;;;;9.07;6.80;;;;;7.80;96833.00;;;;8272934;28;20226;-74
2023/04/08 18:23:20;;;;;;;11.40;6.87;;;;;7.70;96848.00;;;;8280441;28;20225;-73
2023/04/08 18:27:23;;;;;;;9.33;6.60;;;;;7.80;96848.00;;;;8275254;28;20212;-73
2023/04/08 18:31:26;;;;;;;10.00;7.20;;;;;7.70;96853.00;;;;8274305;28;20468;-71
2023/04/08 18:35:33;;;;;;;13.10;7.67;;;;;7.70;96853.00;;;;8272942;28;20809;-73
2023/04/08 18:39:39;;;;;;;11.90;8.13;;;;;7.70;96856.00;;;;8275766;28;20205;-71
2023/04/08 18:43:43;;;;;;;14.87;10.13;;;;;7.70;96867.00;;;;8272692;28;20236;-73
2023/04/08 18:47:51;;;;;;;10.87;8.00;;;;;7.70;96877.00;;;;8276392;28;20218;-74
2023/04/08 18:51:55;;;;;;;10.73;7.87;;;;;7.60;96878.00;;;;8268065;28;20209;-71
2023/04/08 18:56:13;;;;;;;21.50;12.10;;;;;7.60;96888.00;;;;8268032;28;20194;-72
2023/04/08 19:00:19;;;;;;;10.10;7.47;;;;;7.60;96881.00;;;;8269224;28;20198;-71
2023/04/08 19:04:22;;;;;;;29.70;14.27;;;;;7.60;96892.00;;;;8264075;28;20253;-72
2023/04/08 19:08:32;;;;;;;19.17;11.25;;;;;7.60;96888.00;;;;8270754;28;20253;-72
2023/04/08 19:12:37;;;;;;;14.07;8.87;;;;;7.60;96883.00;;;;8269324;28;20217;-74
2023/04/08 19:16:42;;;;;;;12.27;8.77;;;;;7.50;96898.00;;;;8267564;28;20237;-72
2023/04/08 19:20:49;;;;;;;15.27;9.20;;;;;7.50;96907.00;;;;8275514;28;20202;-72
2023/04/08 19:24:52;;;;;;;13.13;8.43;;;;;7.50;96904.00;;;;8279383;28;20591;-72
2023/04/08 19:28:58;;;;;;;15.37;8.70;;;;;7.40;96909.00;;;;8273862;28;20206;-73
2023/04/08 19:33:01;;;;;;;20.53;11.80;;;;;7.40;96915.00;;;;8277085;28;20194;-72
2023/04/08 19:37:07;;;;;;;14.40;9.67;;;;;7.40;96910.00;;;;8268336;28;20194;-74
2023/04/08 19:41:12;;;;;;;12.37;8.43;;;;;7.30;96910.00;;;;8275770;28;20209;-73
2023/04/08 19:45:19;;;;;;;12.33;8.50;;;;;7.30;96910.00;;;;8269529;28;20325;-73
2023/04/08 19:49:22;;;;;;;11.30;7.67;;;;;7.20;96917.00;;;;8270669;28;20753;-72
2023/04/08 19:53:26;;;;;;;13.97;8.80;;;;;7.20;96920.00;;;;8276803;28;20736;-72
2023/04/08 19:57:29;;;;;;;11.23;8.37;;;;;7.20;96918.00;;;;8267180;28;20203;-73
2023/04/08 20:01:38;;;;;;;17.43;10.03;;;;;7.20;96916.00;;;;8266517;28;20289;-72
2023/04/08 20:05:43;;;;;;;12.47;8.80;;;;;7.10;96912.00;;;;8261119;28;20691;-73
2023/04/08 20:09:46;;;;;;;11.90;8.27;;;;;7.00;96916.00;;;;8270636;28;20233;-74
2023/04/08 20:13:51;;;;;;;16.50;8.67;;;;;7.00;96921.00;;;;8263216;28;20222;-74
2023/04/08 20:18:00;;;;;;;15.27;9.90;;;;;6.90;96928.00;;;;8269963;28;20244;-72
2023/04/08 20:22:04;;;;;;;17.90;10.20;;;;;6.90;96928.00;;;;8267732;28;20241;-73
2023/04/08 20:26:07;;;;;;;14.40;8.90;;;;;6.90;96931.00;;;;8276313;28;20238;-73
2023/04/08 20:30:13;;;;;;;13.63;9.67;;;;;6.90;96927.00;;;;8280951;28;20900;-74
2023/04/08 20:34:17;;;;;;;16.60;10.20;;;;;6.90;96931.00;;;;8272423;28;20245;-72